Time;durP1;ratioP1;P1;durP2;ratioP2;P2;SDS_P1;SDS_P2;PMS_P1;PMS_P2;Temp;Humidity;BMP_temperature;BMP_pressure;BME280_temperature;BME280_humidity;BME280_pressure;Samples;Min_cycle;Max_cycle;Signal;HPM_P1;HPM_P2
2021/12/10 08:21:43;;;;;;;;;;;1.00;99.90;;;;;;4989637;28;19924;-88
2021/12/10 08:24:14;;;;;;;;;;;1.00;99.90;;;;;;4991601;28;19921;-89
2021/12/10 08:26:56;;;;;;;;;;;1.00;99.90;;;;;;5018604;28;20024;-87
2021/12/10 08:29:25;;;;;;;;;;;1.00;99.90;;;;;;5002628;28;20431;-86
2021/12/10 08:31:51;;;;;;;;;;;1.00;99.90;;;;;;5005377;28;19910;-89
2021/12/10 08:34:16;;;;;;;;;;;1.00;99.90;;;;;;4984409;28;19968;-88
2021/12/10 08:36:42;;;;;;;;;;;1.00;99.90;;;;;;4992653;28;19939;-88
2021/12/10 08:39:09;;;;;;;;;;;1.00;99.90;;;;;;4991503;28;19967;-88
2021/12/10 08:41:35;;;;;;;;;;;1.00;99.90;;;;;;4975562;28;19910;-87
2021/12/10 08:44:01;;;;;;;;;;;1.00;99.90;;;;;;5006803;28;19968;-88
2021/12/10 08:46:27;;;;;;;;;;;1.00;99.90;;;;;;4975941;28;19975;-87
2021/12/10 08:48:53;;;;;;;;;;;1.00;99.90;;;;;;5003770;28;20325;-86
2021/12/10 08:51:24;;;;;;;;;;;1.00;99.90;;;;;;4998281;28;20004;-88
2021/12/10 08:53:50;;;;;;;;;;;1.00;99.90;;;;;;4975999;28;19949;-91
2021/12/10 08:56:17;;;;;;;;;;;1.00;99.90;;;;;;4995695;28;19949;-90
2021/12/10 08:58:43;;;;;;;;;;;1.00;99.90;;;;;;5006578;28;20432;-87
2021/12/10 09:01:15;;;;;;;;;;;1.00;99.90;;;;;;4998844;28;19913;-87
2021/12/10 09:03:46;;;;;;;;;;;1.00;99.90;;;;;;5019189;28;20024;-87
2021/12/10 09:06:12;;;;;;;;;;;0.90;99.90;;;;;;4992650;28;19957;-87
2021/12/10 09:08:39;;;;;;;;;;;1.00;99.90;;;;;;4992709;28;19910;-89
2021/12/10 09:11:05;;;;;;;;;;;1.00;99.90;;;;;;5009350;28;19906;-89
2021/12/10 09:13:31;;;;;;;;;;;1.00;99.90;;;;;;4973428;28;19910;-87
2021/12/10 09:15:59;;;;;;;;;;;1.00;99.90;;;;;;4997449;28;19924;-88
2021/12/10 09:18:26;;;;;;;;;;;1.00;99.90;;;;;;4994406;28;20072;-87
2021/12/10 09:20:53;;;;;;;;;;;1.00;99.90;;;;;;4992982;28;19925;-87
2021/12/10 09:23:22;;;;;;;;;;;1.10;99.90;;;;;;4994702;28;20546;-87
2021/12/10 09:25:49;;;;;;;;;;;1.10;99.90;;;;;;5006084;28;19910;-87
2021/12/10 09:28:15;;;;;;;;;;;1.10;99.90;;;;;;5000993;28;19916;-87
2021/12/10 09:30:42;;;;;;;;;;;1.20;99.90;;;;;;4984217;28;19956;-86
2021/12/10 09:33:08;;;;;;;;;;;1.20;99.90;;;;;;5002044;28;19909;-88
2021/12/10 09:35:36;;;;;;;;;;;1.10;99.90;;;;;;4996114;28;19917;-88
2021/12/10 09:38:02;;;;;;;;;;;1.20;99.90;;;;;;5003631;28;19913;-86
2021/12/10 09:40:31;;;;;;;;;;;1.10;99.90;;;;;;5008436;28;19910;-86
2021/12/10 09:42:57;;;;;;;;;;;1.10;99.90;;;;;;5009737;28;19919;-86
2021/12/10 09:45:24;;;;;;;;;;;1.10;99.90;;;;;;4999197;28;19940;-88
2021/12/10 09:47:50;;;;;;;;;;;1.00;99.90;;;;;;4992243;28;20396;-87
2021/12/10 09:50:17;;;;;;;;;;;1.00;99.90;;;;;;5002202;28;20390;-87
2021/12/10 09:52:45;;;;;;;;;;;1.00;99.90;;;;;;4989850;28;19906;-90
2021/12/10 09:55:15;;;;;;;;;;;1.10;99.90;;;;;;4994857;28;20391;-90
2021/12/10 09:57:42;;;;;;;;;;;1.10;99.90;;;;;;5012510;28;19909;-87
2021/12/10 10:00:11;;;;;;;;;;;1.10;99.90;;;;;;5003099;28;20364;-89
2021/12/10 10:02:40;;;;;;;;;;;1.10;99.90;;;;;;4999980;28;19922;-87
2021/12/10 10:05:07;;;;;;;;;;;1.10;99.90;;;;;;5015423;28;19925;-90
2021/12/10 10:07:33;;;;;;;;;;;1.10;99.90;;;;;;4997747;28;19910;-86
2021/12/10 10:10:04;;;;;;;;;;;1.10;99.90;;;;;;4994886;28;19914;-88
2021/12/10 10:12:31;;;;;;;;;;;1.10;99.90;;;;;;5005419;28;19960;-89
2021/12/10 10:14:58;;;;;;;;;;;1.00;99.90;;;;;;4996581;28;19910;-86
2021/12/10 10:17:24;;;;;;;;;;;1.00;99.90;;;;;;5003765;28;19913;-89
2021/12/10 10:19:51;;;;;;;;;;;1.10;99.90;;;;;;5000118;28;19910;-88
2021/12/10 10:22:18;;;;;;;;;;;1.00;99.90;;;;;;4995347;28;19920;-88
2021/12/10 10:24:44;;;;;;;;;;;1.00;99.90;;;;;;4996668;28;19920;-87
2021/12/10 10:27:13;;;;;;;;;;;1.10;99.90;;;;;;4985247;28;20000;-88
2021/12/10 10:29:47;;;;;;;;;;;1.10;99.90;;;;;;4994262;28;19913;-86
2021/12/10 10:32:14;;;;;;;;;;;1.10;99.90;;;;;;4995232;28;19983;-87
2021/12/10 10:34:46;;;;;;;;;;;1.10;99.90;;;;;;4997176;28;19909;-87
2021/12/10 10:37:12;;;;;;;;;;;1.10;99.90;;;;;;5000595;28;19921;-85
2021/12/10 10:39:41;;;;;;;;;;;1.10;99.90;;;;;;4962728;28;19913;-86
2021/12/10 10:42:11;;;;;;;;;;;1.10;99.90;;;;;;4989172;28;19910;-86
2021/12/10 10:44:37;;;;;;;;;;;1.10;99.90;;;;;;4987031;28;20428;-86
2021/12/10 10:47:02;;;;;;;;;;;1.10;99.90;;;;;;4993983;28;19993;-84
2021/12/10 10:49:37;;;;;;;;;;;1.10;99.90;;;;;;4976873;28;20388;-85
2021/12/10 10:52:15;;;;;;;;;;;1.10;99.90;;;;;;5011855;28;20000;-87
2021/12/10 10:54:40;;;;;;;;;;;1.10;99.90;;;;;;4993402;28;20396;-86
2021/12/10 10:57:14;;;;;;;;;;;1.10;99.90;;;;;;4988962;28;19910;-87
2021/12/10 10:59:40;;;;;;;;;;;1.10;99.90;;;;;;4995684;28;20520;-87
2021/12/10 11:02:08;;;;;;;;;;;1.10;99.90;;;;;;4992769;28;19909;-88
2021/12/10 11:04:41;;;;;;;;;;;1.10;99.90;;;;;;4992136;28;19921;-86
2021/12/10 11:07:21;;;;;;;;;;;1.20;99.90;;;;;;4987880;28;19917;-86
2021/12/10 11:09:49;;;;;;;;;;;1.20;99.90;;;;;;5000724;28;20483;-86
2021/12/10 11:12:19;;;;;;;;;;;1.20;99.90;;;;;;4987565;28;19909;-86
2021/12/10 11:14:49;;;;;;;;;;;1.20;99.90;;;;;;4987998;28;19921;-85
2021/12/10 11:17:18;;;;;;;;;;;1.30;99.90;;;;;;4986999;28;19969;-85
2021/12/10 11:20:04;;;;;;;;;;;1.20;99.90;;;;;;5001692;28;20027;-86
2021/12/10 11:22:30;;;;;;;;;;;1.30;99.90;;;;;;4999554;28;19940;-84
2021/12/10 11:24:58;;;;;;;;;;;1.20;99.90;;;;;;4990462;28;19918;-86
2021/12/10 11:27:29;;;;;;;;;;;1.20;99.90;;;;;;5007414;28;19905;-85
2021/12/10 11:30:04;;;;;;;;;;;1.10;99.90;;;;;;5000092;28;19916;-86
2021/12/10 11:32:45;;;;;;;;;;;1.10;99.90;;;;;;5008266;28;19920;-85
2021/12/10 11:35:10;;;;;;;;;;;1.10;99.90;;;;;;5002095;28;19916;-87
2021/12/10 11:37:51;;;;;;;;;;;1.20;99.90;;;;;;5005355;28;19921;-86
2021/12/10 11:40:38;;;;;;;;;;;1.20;99.90;;;;;;4987636;28;19910;-87
2021/12/10 11:43:17;;;;;;;;;;;1.20;99.90;;;;;;4989251;28;19968;-87
2021/12/10 11:45:50;;;;;;;;;;;1.20;99.90;;;;;;4988603;28;19914;-86
2021/12/10 11:48:24;;;;;;;;;;;1.20;99.90;;;;;;4975498;28;20459;-86
2021/12/10 11:50:59;;;;;;;;;;;1.20;99.90;;;;;;5002916;28;19959;-88
2021/12/10 11:53:33;;;;;;;;;;;1.20;99.90;;;;;;4992959;28;19913;-89
2021/12/10 11:56:03;;;;;;;;;;;1.20;99.90;;;;;;4991820;28;19918;-87
2021/12/10 11:58:29;;;;;;;;;;;1.30;99.90;;;;;;4990903;28;19964;-88
2021/12/10 12:00:55;;;;;;;;;;;1.30;99.90;;;;;;5007536;28;19949;-86
2021/12/10 12:03:27;;;;;;;;;;;1.30;99.90;;;;;;4991778;28;19960;-87
2021/12/10 12:05:53;;;;;;;;;;;1.30;99.90;;;;;;4986365;28;19921;-87
2021/12/10 12:08:19;;;;;;;;;;;1.30;99.90;;;;;;4990279;28;19922;-87
2021/12/10 12:10:46;;;;;;;;;;;1.30;99.90;;;;;;4970933;28;20137;-88
2021/12/10 12:16:27;;;;;;;;;;;;;;;;;;;;;
2021/12/10 12:19:14;;;;;;;;;;;1.30;99.90;;;;;;4989536;28;19960;-89
2021/12/10 12:21:53;;;;;;;;;;;1.40;99.90;;;;;;4986383;28;19914;-89
2021/12/10 12:27:06;;;;;;;;;;;1.40;99.90;;;;;;4996305;28;20332;-87
2021/12/10 12:29:35;;;;;;;;;;;1.40;99.90;;;;;;4992828;28;19913;-86
2021/12/10 12:32:00;;;;;;;;;;;1.40;99.90;;;;;;4991759;28;19906;-88
2021/12/10 12:34:27;;;;;;;;;;;1.40;99.90;;;;;;4984634;28;19909;-89
2021/12/10 12:36:55;;;;;;;;;;;1.50;99.90;;;;;;5012410;28;19920;-88
2021/12/10 12:39:27;;;;;;;;;;;1.50;99.90;;;;;;4986759;28;20365;-87
2021/12/10 12:41:53;;;;;;;;;;;1.50;99.90;;;;;;4974505;28;19913;-86
2021/12/10 12:44:21;;;;;;;;;;;1.50;99.90;;;;;;4994411;28;19922;-88
2021/12/10 12:47:13;;;;;;;;;;;1.50;99.90;;;;;;4997529;28;19960;-88
2021/12/10 12:49:48;;;;;;;;;;;1.40;99.90;;;;;;5003445;28;19933;-87
2021/12/10 12:52:22;;;;;;;;;;;1.50;99.90;;;;;;5031155;28;20284;-89
2021/12/10 12:55:04;;;;;;;;;;;1.40;99.90;;;;;;4999189;28;20368;-87
2021/12/10 12:57:47;;;;;;;;;;;1.40;99.90;;;;;;4999271;28;19909;-87
2021/12/10 13:00:20;;;;;;;;;;;1.40;99.90;;;;;;4985849;28;19916;-87
2021/12/10 13:02:51;;;;;;;;;;;1.40;99.90;;;;;;4996963;28;19973;-87
2021/12/10 13:05:16;;;;;;;;;;;1.40;99.90;;;;;;5002323;28;20043;-86
2021/12/10 13:07:42;;;;;;;;;;;1.40;99.90;;;;;;5003662;28;19909;-87
2021/12/10 13:10:16;;;;;;;;;;;1.40;99.90;;;;;;5000004;28;20008;-87
2021/12/10 13:12:49;;;;;;;;;;;1.40;99.90;;;;;;5016851;28;20279;-88
2021/12/10 13:15:18;;;;;;;;;;;1.40;99.90;;;;;;4996554;28;19964;-87
2021/12/10 13:17:45;;;;;;;;;;;1.40;99.90;;;;;;5003982;28;19918;-88
2021/12/10 13:20:14;;;;;;;;;;;1.40;99.90;;;;;;4990067;28;19916;-86
2021/12/10 13:22:40;;;;;;;;;;;1.40;99.90;;;;;;4992763;28;19972;-88
2021/12/10 13:25:08;;;;;;;;;;;1.30;99.90;;;;;;4983628;28;19909;-88
2021/12/10 13:27:36;;;;;;;;;;;1.20;99.90;;;;;;5008896;28;20279;-87
2021/12/10 13:30:04;;;;;;;;;;;1.30;99.90;;;;;;4968023;28;19910;-88
2021/12/10 13:32:30;;;;;;;;;;;1.30;99.90;;;;;;4983760;28;19909;-87
2021/12/10 13:34:56;;;;;;;;;;;1.30;99.90;;;;;;4997672;28;20438;-87
2021/12/10 13:37:21;;;;;;;;;;;1.30;99.90;;;;;;5000399;28;19916;-87
2021/12/10 13:39:52;;;;;;;;;;;1.30;99.90;;;;;;4983348;28;20408;-88
2021/12/10 13:42:18;;;;;;;;;;;1.30;99.90;;;;;;4993631;28;19917;-86
2021/12/10 13:44:50;;;;;;;;;;;1.30;99.90;;;;;;4994880;28;19924;-87
2021/12/10 13:47:25;;;;;;;;;;;1.20;99.90;;;;;;4986276;28;20380;-88
2021/12/10 13:49:53;;;;;;;;;;;1.20;99.90;;;;;;5000949;28;19909;-87
2021/12/10 13:52:37;;;;;;;;;;;1.20;99.90;;;;;;4999686;28;19920;-87
2021/12/10 13:55:05;;;;;;;;;;;1.20;99.90;;;;;;5015410;28;19914;-88
2021/12/10 13:57:31;;;;;;;;;;;1.20;99.90;;;;;;4999626;28;19992;-86
2021/12/10 13:59:58;;;;;;;;;;;1.20;99.90;;;;;;5017061;28;20406;-88
2021/12/10 14:02:38;;;;;;;;;;;1.20;99.90;;;;;;4992933;28;20901;-88
2021/12/10 14:05:16;;;;;;;;;;;1.10;99.90;;;;;;5000557;28;19910;-88
2021/12/10 14:07:52;;;;;;;;;;;1.10;99.90;;;;;;5003754;28;19909;-87
2021/12/10 14:10:30;;;;;;;;;;;1.10;99.90;;;;;;5022875;28;19928;-86
2021/12/10 14:12:57;;;;;;;;;;;1.10;99.90;;;;;;4979700;28;20023;-86
2021/12/10 14:15:29;;;;;;;;;;;1.10;99.90;;;;;;4997433;28;19993;-89
2021/12/10 14:18:00;;;;;;;;;;;1.10;99.90;;;;;;4997000;28;20393;-88
2021/12/10 14:20:29;;;;;;;;;;;1.00;99.90;;;;;;5002114;28;19910;-88
2021/12/10 14:22:56;;;;;;;;;;;1.10;99.90;;;;;;4992514;28;20400;-89
2021/12/10 14:25:32;;;;;;;;;;;1.10;99.90;;;;;;4992422;28;19909;-88
2021/12/10 14:28:05;;;;;;;;;;;1.10;99.90;;;;;;4997189;28;19910;-88
2021/12/10 14:30:35;;;;;;;;;;;1.10;99.90;;;;;;5008736;28;20435;-87
2021/12/10 14:33:03;;;;;;;;;;;1.00;99.90;;;;;;5001282;28;19917;-88
2021/12/10 14:35:36;;;;;;;;;;;1.00;99.90;;;;;;4996728;28;19909;-87
2021/12/10 14:38:03;;;;;;;;;;;1.00;99.90;;;;;;5014294;28;19960;-88
2021/12/10 14:40:32;;;;;;;;;;;0.90;99.90;;;;;;4999530;28;19964;-87
2021/12/10 14:43:13;;;;;;;;;;;0.90;99.90;;;;;;4993356;28;19914;-88
2021/12/10 14:46:05;;;;;;;;;;;0.80;99.90;;;;;;5009912;28;19913;-87
2021/12/10 14:48:31;;;;;;;;;;;0.70;99.90;;;;;;4993929;28;19996;-88
2021/12/10 14:51:00;;;;;;;;;;;0.70;99.90;;;;;;4990997;28;19909;-88
2021/12/10 14:53:36;;;;;;;;;;;0.60;99.90;;;;;;4996875;28;20319;-88
2021/12/10 14:56:20;;;;;;;;;;;0.60;99.90;;;;;;4993996;28;20413;-88
2021/12/10 14:59:15;;;;;;;;;;;0.50;99.90;;;;;;4998384;28;20000;-88
2021/12/10 15:01:48;;;;;;;;;;;0.40;99.90;;;;;;5008886;28;19973;-88
2021/12/10 15:04:19;;;;;;;;;;;0.40;99.90;;;;;;5009620;28;20438;-88
2021/12/10 15:06:57;;;;;;;;;;;0.30;99.90;;;;;;4996552;28;19910;-89
2021/12/10 15:09:24;;;;;;;;;;;0.30;99.90;;;;;;4996782;28;19963;-89
2021/12/10 15:11:57;;;;;;;;;;;0.20;99.90;;;;;;4988659;28;20253;-86
2021/12/10 15:14:26;;;;;;;;;;;0.20;99.90;;;;;;4985730;28;20361;-87
2021/12/10 15:17:04;;;;;;;;;;;0.20;99.90;;;;;;4971825;28;19917;-86
2021/12/10 15:19:42;;;;;;;;;;;0.10;99.90;;;;;;4969191;28;19914;-87
2021/12/10 15:22:09;;;;;;;;;;;0.00;99.90;;;;;;5007290;28;20372;-88
2021/12/10 15:24:40;;;;;;;;;;;0.10;99.90;;;;;;5009339;28;19962;-87
2021/12/10 15:27:09;;;;;;;;;;;0.00;99.90;;;;;;4977936;28;19909;-88
2021/12/10 15:29:38;;;;;;;;;;;0.00;99.90;;;;;;4998202;28;19916;-88
2021/12/10 15:32:04;;;;;;;;;;;-0.10;99.90;;;;;;4991212;28;19914;-87
2021/12/10 15:34:32;;;;;;;;;;;-0.10;99.90;;;;;;4989633;28;19909;-86
2021/12/10 15:36:59;;;;;;;;;;;-0.10;99.90;;;;;;5002426;28;19940;-86
2021/12/10 15:39:28;;;;;;;;;;;-0.20;99.90;;;;;;4995100;28;20354;-88
2021/12/10 15:41:54;;;;;;;;;;;-0.30;99.90;;;;;;4994350;28;19920;-87
2021/12/10 15:44:20;;;;;;;;;;;-0.40;99.90;;;;;;4986290;28;19913;-86
2021/12/10 15:46:53;;;;;;;;;;;-0.40;99.90;;;;;;4990969;28;20816;-86
2021/12/10 15:49:23;;;;;;;;;;;-0.50;99.90;;;;;;4986120;28;19914;-86
2021/12/10 15:52:02;;;;;;;;;;;-0.50;99.90;;;;;;4996459;28;20047;-85
2021/12/10 15:54:34;;;;;;;;;;;-0.60;99.90;;;;;;5002772;28;20411;-86
2021/12/10 15:57:03;;;;;;;;;;;-0.60;99.90;;;;;;4998598;28;20288;-85
2021/12/10 15:59:32;;;;;;;;;;;-0.60;99.90;;;;;;4998490;28;19913;-85
2021/12/10 16:01:59;;;;;;;;;;;-0.70;99.90;;;;;;4985785;28;19909;-86
2021/12/10 16:04:27;;;;;;;;;;;-0.60;99.90;;;;;;4984813;28;19917;-86
2021/12/10 16:06:53;;;;;;;;;;;-0.70;99.90;;;;;;4979892;28;20435;-86
2021/12/10 16:09:22;;;;;;;;;;;-0.70;99.90;;;;;;4988222;28;19918;-86
2021/12/10 16:11:51;;;;;;;;;;;-0.70;99.90;;;;;;4991658;28;20570;-86
2021/12/10 16:14:16;;;;;;;;;;;-0.60;99.90;;;;;;4988489;28;20856;-85
2021/12/10 16:16:44;;;;;;;;;;;-0.60;99.90;;;;;;4989240;28;19917;-86
2021/12/10 16:19:14;;;;;;;;;;;-0.60;99.90;;;;;;4996420;28;19968;-86
2021/12/10 16:21:42;;;;;;;;;;;-0.60;99.90;;;;;;4987232;28;19922;-86
2021/12/10 16:24:21;;;;;;;;;;;-0.60;99.90;;;;;;4975124;28;20376;-86
2021/12/10 16:26:51;;;;;;;;;;;-0.60;99.90;;;;;;5009311;28;19910;-86
2021/12/10 16:29:19;;;;;;;;;;;-0.60;99.90;;;;;;4999623;28;19996;-86
2021/12/10 16:31:51;;;;;;;;;;;-0.50;99.90;;;;;;5005321;28;19909;-85
2021/12/10 16:34:17;;;;;;;;;;;-0.50;99.90;;;;;;4995147;28;19910;-85
2021/12/10 16:36:45;;;;;;;;;;;-0.50;99.90;;;;;;4974934;28;20705;-86
2021/12/10 16:39:12;;;;;;;;;;;-0.50;99.90;;;;;;4981327;28;19913;-86
2021/12/10 16:41:42;;;;;;;;;;;-0.40;99.90;;;;;;4997448;28;19910;-86
2021/12/10 16:44:13;;;;;;;;;;;-0.40;99.90;;;;;;4973576;28;19972;-85
2021/12/10 16:46:40;;;;;;;;;;;-0.40;99.90;;;;;;4970736;28;19922;-85
2021/12/10 16:49:09;;;;;;;;;;;-0.40;99.90;;;;;;4986676;28;19973;-85
2021/12/10 16:51:40;;;;;;;;;;;-0.40;99.90;;;;;;4989325;28;19909;-85
2021/12/10 16:54:18;;;;;;;;;;;-0.40;99.90;;;;;;5002687;28;20012;-86
2021/12/10 16:56:47;;;;;;;;;;;-0.40;99.90;;;;;;5002294;28;19969;-85
2021/12/10 16:59:13;;;;;;;;;;;-0.40;99.90;;;;;;4998365;28;19917;-86
2021/12/10 17:01:47;;;;;;;;;;;-0.40;99.90;;;;;;4987297;28;19914;-86
2021/12/10 17:04:14;;;;;;;;;;;-0.40;99.90;;;;;;5022956;28;19913;-85
2021/12/10 17:06:43;;;;;;;;;;;-0.40;99.90;;;;;;4991272;28;20425;-85
2021/12/10 17:09:09;;;;;;;;;;;-0.40;99.90;;;;;;5004633;28;19964;-85
2021/12/10 17:11:37;;;;;;;;;;;-0.30;99.90;;;;;;4970434;28;19910;-85
2021/12/10 17:14:06;;;;;;;;;;;-0.20;99.90;;;;;;5003606;28;19909;-85
2021/12/10 17:16:35;;;;;;;;;;;-0.10;99.90;;;;;;4976927;28;19932;-86
2021/12/10 17:19:03;;;;;;;;;;;-0.10;99.90;;;;;;5002553;28;19910;-85
2021/12/10 17:21:32;;;;;;;;;;;-0.10;99.90;;;;;;4953130;28;19964;-85
2021/12/10 17:24:00;;;;;;;;;;;0.00;99.90;;;;;;4990650;28;19923;-85
2021/12/10 17:26:28;;;;;;;;;;;0.00;99.90;;;;;;4992334;28;19910;-85
2021/12/10 17:28:59;;;;;;;;;;;0.10;99.90;;;;;;5009107;28;19917;-85
2021/12/10 17:31:28;;;;;;;;;;;0.10;99.90;;;;;;5003161;28;19953;-85
2021/12/10 17:33:58;;;;;;;;;;;0.20;99.90;;;;;;4995675;28;19909;-85
2021/12/10 17:36:34;;;;;;;;;;;0.20;99.90;;;;;;4994852;28;19909;-85
2021/12/10 17:39:04;;;;;;;;;;;0.30;99.90;;;;;;5002318;28;19921;-86
2021/12/10 17:41:31;;;;;;;;;;;0.30;99.90;;;;;;4990959;28;19909;-85
2021/12/10 17:43:59;;;;;;;;;;;0.30;99.90;;;;;;4991470;28;19922;-86
2021/12/10 17:46:37;;;;;;;;;;;0.30;99.90;;;;;;4977918;28;20361;-86
2021/12/10 17:49:05;;;;;;;;;;;0.30;99.90;;;;;;4993277;28;19917;-86
2021/12/10 17:51:33;;;;;;;;;;;0.40;99.90;;;;;;4990907;28;19956;-86
2021/12/10 17:54:02;;;;;;;;;;;0.40;99.90;;;;;;5008279;28;20446;-86
2021/12/10 17:56:28;;;;;;;;;;;0.40;99.90;;;;;;4981262;28;19914;-86
2021/12/10 17:58:55;;;;;;;;;;;0.40;99.90;;;;;;5004522;28;19910;-86
2021/12/10 18:01:22;;;;;;;;;;;0.40;99.90;;;;;;4995943;28;19910;-85
2021/12/10 18:03:52;;;;;;;;;;;0.50;99.90;;;;;;5006976;28;19914;-86
2021/12/10 18:06:19;;;;;;;;;;;0.40;99.90;;;;;;4994215;28;20016;-85
2021/12/10 18:08:45;;;;;;;;;;;0.50;99.90;;;;;;5006059;28;19967;-85
2021/12/10 18:11:11;;;;;;;;;;;0.50;99.90;;;;;;4989023;28;19909;-86
2021/12/10 18:13:38;;;;;;;;;;;0.50;99.90;;;;;;4975994;28;19943;-86
2021/12/10 18:16:07;;;;;;;;;;;0.50;99.90;;;;;;4995000;28;19910;-86
2021/12/10 18:18:36;;;;;;;;;;;0.50;99.90;;;;;;4976130;28;19937;-84
2021/12/10 18:21:02;;;;;;;;;;;0.50;99.90;;;;;;5007708;28;19920;-85
2021/12/10 18:23:29;;;;;;;;;;;0.50;99.90;;;;;;4974790;28;19992;-86
2021/12/10 18:26:00;;;;;;;;;;;0.50;99.90;;;;;;4991876;28;19910;-86
2021/12/10 18:28:28;;;;;;;;;;;0.50;99.90;;;;;;5024198;28;19933;-86
2021/12/10 18:30:56;;;;;;;;;;;0.50;99.90;;;;;;4987496;28;19917;-86
2021/12/10 18:33:24;;;;;;;;;;;0.50;99.90;;;;;;4993385;28;20371;-85
2021/12/10 18:35:50;;;;;;;;;;;0.50;99.90;;;;;;4999899;28;20001;-86
2021/12/10 18:38:19;;;;;;;;;;;0.50;99.90;;;;;;4974582;28;19996;-86
2021/12/10 18:40:47;;;;;;;;;;;0.50;99.90;;;;;;4990074;28;19917;-86
2021/12/10 18:43:17;;;;;;;;;;;0.50;99.90;;;;;;4991176;28;19914;-87
2021/12/10 18:45:45;;;;;;;;;;;0.60;99.90;;;;;;4987149;28;20008;-86
2021/12/10 18:48:12;;;;;;;;;;;0.50;99.90;;;;;;4985542;28;19942;-87
2021/12/10 18:50:41;;;;;;;;;;;0.60;99.90;;;;;;4971094;28;19913;-86
2021/12/10 18:53:08;;;;;;;;;;;0.60;99.90;;;;;;4987177;28;19909;-85
2021/12/10 18:55:36;;;;;;;;;;;0.60;99.90;;;;;;4991664;28;19941;-85
2021/12/10 18:58:03;;;;;;;;;;;0.60;99.90;;;;;;4986276;28;20352;-85
2021/12/10 19:00:38;;;;;;;;;;;0.60;99.90;;;;;;4990129;28;19991;-86
2021/12/10 19:03:06;;;;;;;;;;;0.60;99.90;;;;;;4985611;28;20010;-86
2021/12/10 19:05:34;;;;;;;;;;;0.60;99.90;;;;;;4965004;28;19957;-86
2021/12/10 19:08:01;;;;;;;;;;;0.60;99.90;;;;;;4973754;28;19921;-86
2021/12/10 19:10:33;;;;;;;;;;;0.60;99.90;;;;;;4991880;28;19944;-87
2021/12/10 19:13:00;;;;;;;;;;;0.60;99.90;;;;;;4988793;28;19945;-86
2021/12/10 19:15:29;;;;;;;;;;;0.70;99.90;;;;;;4991816;28;19910;-85
2021/12/10 19:17:57;;;;;;;;;;;0.70;99.90;;;;;;4990921;28;19910;-86
2021/12/10 19:20:35;;;;;;;;;;;0.70;99.90;;;;;;5011256;28;19989;-85
2021/12/10 19:23:04;;;;;;;;;;;0.60;99.90;;;;;;4993277;28;19913;-86
2021/12/10 19:25:38;;;;;;;;;;;0.60;99.90;;;;;;4982174;28;19916;-86
2021/12/10 19:28:07;;;;;;;;;;;0.60;99.90;;;;;;4994840;28;20036;-86
2021/12/10 19:30:41;;;;;;;;;;;0.70;99.90;;;;;;4988887;28;20384;-86
2021/12/10 19:33:09;;;;;;;;;;;0.70;99.90;;;;;;5000372;28;19921;-86
2021/12/10 19:35:41;;;;;;;;;;;0.70;99.90;;;;;;4996003;28;20694;-86
2021/12/10 19:38:09;;;;;;;;;;;0.70;99.90;;;;;;4970303;28;20484;-87
2021/12/10 19:40:44;;;;;;;;;;;0.70;99.90;;;;;;4991763;28;19910;-84
2021/12/10 19:43:13;;;;;;;;;;;0.70;99.90;;;;;;4974401;28;19918;-84
2021/12/10 19:45:45;;;;;;;;;;;0.70;99.90;;;;;;4977913;28;19925;-86
2021/12/10 19:48:13;;;;;;;;;;;0.70;99.90;;;;;;4989661;28;19913;-86
2021/12/10 19:50:50;;;;;;;;;;;0.70;99.90;;;;;;4987478;28;19980;-86
2021/12/10 19:53:19;;;;;;;;;;;0.70;99.90;;;;;;4968747;28;19910;-86
2021/12/10 19:55:52;;;;;;;;;;;0.70;99.90;;;;;;4993262;28;20501;-85
2021/12/10 19:58:21;;;;;;;;;;;0.70;99.90;;;;;;4992070;28;19910;-84
2021/12/10 20:00:53;;;;;;;;;;;0.70;99.90;;;;;;4981603;28;19920;-86
2021/12/10 20:03:21;;;;;;;;;;;0.70;99.90;;;;;;4985616;28;19917;-85
2021/12/10 20:05:50;;;;;;;;;;;0.70;99.90;;;;;;4984611;28;19925;-85
2021/12/10 20:08:15;;;;;;;;;;;0.80;99.90;;;;;;4991677;28;19910;-84
2021/12/10 20:10:45;;;;;;;;;;;0.80;99.90;;;;;;4995366;28;20697;-87
2021/12/10 20:13:14;;;;;;;;;;;0.80;99.90;;;;;;4989541;28;19909;-85
2021/12/10 20:16:01;;;;;;;;;;;0.80;99.90;;;;;;4981680;28;20277;-85
2021/12/10 20:18:38;;;;;;;;;;;0.80;99.90;;;;;;4981978;28;20350;-86
2021/12/10 20:21:09;;;;;;;;;;;0.80;99.90;;;;;;4990887;28;19914;-85
2021/12/10 20:23:35;;;;;;;;;;;0.70;99.90;;;;;;4994138;28;19917;-87
2021/12/10 20:26:08;;;;;;;;;;;0.70;99.90;;;;;;4990868;28;19909;-86
2021/12/10 20:28:36;;;;;;;;;;;0.80;99.90;;;;;;4997480;28;19948;-85
2021/12/10 20:31:07;;;;;;;;;;;0.80;99.90;;;;;;4988355;28;19910;-83
2021/12/10 20:33:37;;;;;;;;;;;0.80;99.90;;;;;;4993103;28;19910;-84
2021/12/10 20:36:13;;;;;;;;;;;0.80;99.90;;;;;;4975040;28;19916;-84
2021/12/10 20:38:45;;;;;;;;;;;0.80;99.90;;;;;;5001938;28;19917;-85
2021/12/10 20:41:15;;;;;;;;;;;0.80;99.90;;;;;;4975491;28;19910;-86
2021/12/10 20:43:43;;;;;;;;;;;0.70;99.90;;;;;;5016844;28;19929;-85
2021/12/10 20:46:11;;;;;;;;;;;0.70;99.90;;;;;;4962215;28;20000;-85
2021/12/10 20:48:39;;;;;;;;;;;0.70;99.90;;;;;;4981849;28;19917;-86
2021/12/10 20:51:10;;;;;;;;;;;0.70;99.90;;;;;;4986869;28;19922;-86
2021/12/10 20:53:40;;;;;;;;;;;0.70;99.90;;;;;;4986594;28;19972;-86
2021/12/10 20:56:13;;;;;;;;;;;0.70;99.90;;;;;;4995383;28;19916;-84
2021/12/10 20:58:48;;;;;;;;;;;0.70;99.90;;;;;;4996215;28;19916;-86
2021/12/10 21:01:25;;;;;;;;;;;0.70;99.90;;;;;;4990655;28;20257;-85
2021/12/10 21:03:58;;;;;;;;;;;0.70;99.90;;;;;;4989368;28;19921;-86
2021/12/10 21:06:27;;;;;;;;;;;0.70;99.90;;;;;;4990600;28;20253;-85
2021/12/10 21:08:58;;;;;;;;;;;0.70;99.90;;;;;;5006182;28;20361;-87
2021/12/10 21:11:36;;;;;;;;;;;0.70;99.90;;;;;;4995744;28;20396;-85
2021/12/10 21:14:09;;;;;;;;;;;0.80;99.90;;;;;;5014867;28;20364;-86
2021/12/10 21:16:37;;;;;;;;;;;0.70;99.90;;;;;;4992591;28;20434;-85
2021/12/10 21:19:07;;;;;;;;;;;0.70;99.90;;;;;;4995739;28;19956;-87
2021/12/10 21:21:36;;;;;;;;;;;0.70;99.90;;;;;;4991446;28;20315;-86
2021/12/10 21:24:05;;;;;;;;;;;0.70;99.90;;;;;;4989285;28;20052;-86
2021/12/10 21:26:36;;;;;;;;;;;0.70;99.90;;;;;;4997933;28;19909;-85
2021/12/10 21:29:07;;;;;;;;;;;0.70;99.90;;;;;;4996404;28;19917;-84
2021/12/10 21:31:56;;;;;;;;;;;0.70;99.90;;;;;;5006101;28;19910;-87
2021/12/10 21:34:24;;;;;;;;;;;0.70;99.90;;;;;;4991908;28;20000;-85
2021/12/10 21:39:24;;;;;;;;;;;0.70;99.90;;;;;;4993494;28;19910;-86
2021/12/10 21:41:55;;;;;;;;;;;0.70;99.90;;;;;;5023026;28;19920;-86
2021/12/10 21:44:25;;;;;;;;;;;0.70;99.90;;;;;;4995475;28;19922;-86
2021/12/10 21:46:56;;;;;;;;;;;0.70;99.90;;;;;;4994185;28;20309;-87
2021/12/10 21:49:23;;;;;;;;;;;0.70;99.90;;;;;;4999393;28;19916;-85
2021/12/10 21:51:58;;;;;;;;;;;0.70;99.90;;;;;;5005227;28;19988;-86
2021/12/10 21:54:26;;;;;;;;;;;0.70;99.90;;;;;;4995505;28;19958;-85
2021/12/10 21:56:54;;;;;;;;;;;0.70;99.90;;;;;;4989742;28;19909;-88
2021/12/10 21:59:23;;;;;;;;;;;0.70;99.90;;;;;;4985312;28;20560;-86
2021/12/10 22:02:09;;;;;;;;;;;0.70;99.90;;;;;;4973680;28;19929;-85
2021/12/10 22:04:38;;;;;;;;;;;0.70;99.90;;;;;;5002295;28;19921;-86
2021/12/10 22:07:07;;;;;;;;;;;0.80;99.90;;;;;;5004824;28;19971;-85
2021/12/10 22:09:40;;;;;;;;;;;0.70;99.90;;;;;;4990590;28;19921;-87
2021/12/10 22:12:06;;;;;;;;;;;0.80;99.90;;;;;;5008362;28;19916;-87
2021/12/10 22:14:33;;;;;;;;;;;0.70;99.90;;;;;;4996294;28;19905;-86
2021/12/10 22:17:02;;;;;;;;;;;0.70;99.90;;;;;;4974718;28;19925;-86
2021/12/10 22:19:33;;;;;;;;;;;0.70;99.90;;;;;;4999700;28;19909;-86
2021/12/10 22:22:01;;;;;;;;;;;0.70;99.90;;;;;;5000492;28;19917;-85
2021/12/10 22:24:34;;;;;;;;;;;0.70;99.90;;;;;;4999082;28;19953;-86
2021/12/10 22:27:03;;;;;;;;;;;0.70;99.90;;;;;;4997236;28;19980;-86
2021/12/10 22:29:31;;;;;;;;;;;0.70;99.90;;;;;;4996656;28;19976;-88
2021/12/10 22:31:59;;;;;;;;;;;0.70;99.90;;;;;;5012415;28;19971;-86
2021/12/10 22:34:27;;;;;;;;;;;0.70;99.90;;;;;;4971138;28;19910;-88
2021/12/10 22:37:03;;;;;;;;;;;0.70;99.90;;;;;;4986401;28;20009;-87
2021/12/10 22:39:55;;;;;;;;;;;0.70;99.90;;;;;;4978542;28;19913;-88
2021/12/10 22:42:36;;;;;;;;;;;0.70;99.90;;;;;;4974743;28;19909;-87
2021/12/10 22:45:06;;;;;;;;;;;0.70;99.90;;;;;;5004996;28;19941;-87
2021/12/10 22:47:33;;;;;;;;;;;0.70;99.90;;;;;;5001357;28;19917;-86
2021/12/10 22:50:03;;;;;;;;;;;0.70;99.90;;;;;;4983694;28;20292;-86
2021/12/10 22:52:30;;;;;;;;;;;0.80;99.90;;;;;;4995750;28;19921;-86
2021/12/10 22:55:01;;;;;;;;;;;0.80;99.90;;;;;;5008012;28;19913;-88
2021/12/10 22:57:29;;;;;;;;;;;0.80;99.90;;;;;;4994595;28;20518;-85
2021/12/10 22:59:58;;;;;;;;;;;0.90;99.90;;;;;;4997657;28;20368;-86
2021/12/10 23:02:26;;;;;;;;;;;0.80;99.90;;;;;;5003425;28;19909;-87
2021/12/10 23:04:54;;;;;;;;;;;0.80;99.90;;;;;;4999663;28;19910;-85
2021/12/10 23:07:37;;;;;;;;;;;0.80;99.90;;;;;;5005924;28;19991;-86
2021/12/10 23:10:12;;;;;;;;;;;0.80;99.90;;;;;;4994723;28;19910;-86
2021/12/10 23:12:41;;;;;;;;;;;0.80;99.90;;;;;;5004055;28;19957;-88
2021/12/10 23:15:19;;;;;;;;;;;0.80;99.90;;;;;;5004664;28;19910;-86